Symerton, Illinois
Current Conditions -  °F | °C
As of 12:15 AM on Sunday 26 Oct 2014 (Local Time) from KJOT Reporting Station
Clear Clear  
Wind Chill: 46°   Ceiling: Unl
Heat Index: 46°   Visibility: 10mi
Dew Point: 32°   Wind: 0mph
Humidity: 59%   Direction: NA
Pressure: 29.99"   Gusts: NA
Location:  41.3199°N, 88.0518°W
Report Text: KJOT 260515Z AUTO 00000KT 10SM CLR 08/00 A2999 RMK AO2 T00760000
Loading
Personal Weather Stations






























Interactive Weather Map
Tropical Storm Tracking
New forecast layout! Learn more

10-Day Weather Forecast

Advertisements
Track Severe Weather on mobile